createdAt,value
2019-03-20T00:01:52.865Z,69.72
2019-03-20T00:07:00.113Z,77.25
2019-03-20T00:12:07.151Z,75.22
2019-03-20T00:17:14.293Z,71.07
2019-03-20T00:22:21.656Z,72.00
2019-03-20T00:27:30.125Z,71.87
2019-03-20T00:32:37.065Z,75.62
2019-03-20T00:37:44.008Z,70.90
2019-03-20T00:42:51.074Z,75.97
2019-03-20T00:47:58.520Z,73.35
2019-03-20T00:53:05.649Z,70.22
2019-03-20T00:58:12.907Z,75.28
2019-03-20T01:03:20.205Z,76.92
2019-03-20T01:08:27.129Z,76.20
2019-03-20T01:13:35.191Z,73.62
2019-03-20T01:18:42.553Z,76.92
2019-03-20T01:23:51.522Z,75.25
2019-03-20T01:28:59.519Z,78.47
2019-03-20T01:34:07.525Z,78.57
2019-03-20T01:39:14.787Z,77.62
2019-03-20T01:44:24.046Z,79.07
2019-03-20T01:49:30.974Z,77.92
2019-03-20T01:54:38.507Z,77.87
2019-03-20T01:59:45.731Z,77.70
2019-03-20T02:04:53.154Z,75.97
2019-03-20T02:10:00.446Z,73.83
2019-03-20T02:15:11.728Z,74.05
2019-03-20T02:20:20.907Z,70.83
2019-03-20T02:25:29.297Z,69.32
2019-03-20T02:30:36.172Z,69.15
2019-03-20T02:35:51.408Z,66.53
2019-03-20T02:40:53.221Z,66.10
2019-03-20T02:46:00.308Z,62.38
2019-03-20T02:51:07.621Z,62.60
2019-03-20T02:56:14.847Z,64.15
2019-03-20T03:01:22.223Z,63.70
2019-03-20T03:06:29.363Z,60.65
2019-03-20T03:11:36.290Z,57.90
2019-03-20T03:16:44.586Z,57.60
2019-03-20T03:21:52.017Z,56.88
2019-03-20T03:27:00.704Z,58.02
2019-03-20T03:32:08.943Z,54.50
2019-03-20T03:37:15.873Z,56.73
2019-03-20T03:42:23.324Z,51.95
2019-03-20T03:47:30.388Z,55.40
2019-03-20T03:52:37.390Z,54.70
2019-03-20T03:57:45.512Z,52.58
2019-03-20T04:02:53.135Z,54.10
2019-03-20T04:08:00.289Z,51.45
2019-03-20T04:13:07.958Z,47.90
2019-03-20T04:18:16.993Z,46.13
2019-03-20T04:23:26.331Z,49.50
2019-03-20T04:28:33.778Z,48.83
2019-03-20T04:33:41.545Z,50.38
2019-03-20T04:38:48.469Z,51.20
2019-03-20T04:43:56.359Z,50.40
2019-03-20T04:49:05.045Z,50.25
2019-03-20T04:54:13.045Z,48.60
2019-03-20T04:59:20.851Z,49.08
2019-03-20T05:04:27.860Z,49.50
2019-03-20T05:09:36.478Z,49.18
2019-03-20T05:14:43.866Z,45.92
2019-03-20T05:19:51.739Z,49.08
2019-03-20T05:24:59.506Z,47.98
2019-03-20T05:30:08.718Z,46.45
2019-03-20T05:35:16.070Z,46.53
2019-03-20T05:40:24.183Z,47.83
2019-03-20T05:45:32.247Z,47.67
2019-03-20T05:50:40.341Z,45.00
2019-03-20T05:55:47.897Z,43.17
2019-03-20T06:00:56.773Z,42.53
2019-03-20T06:06:05.008Z,41.68
2019-03-20T06:11:13.257Z,43.55
2019-03-20T06:16:21.635Z,41.95
2019-03-20T06:21:29.892Z,41.73
2019-03-20T06:26:38.953Z,42.17
2019-03-20T06:31:45.893Z,42.13
2019-03-20T06:36:54.431Z,39.40
2019-03-20T06:42:02.027Z,39.40
2019-03-20T06:47:10.378Z,39.63
2019-03-20T06:52:17.504Z,37.83
2019-03-20T06:57:26.381Z,36.68
2019-03-20T07:02:34.815Z,37.65
2019-03-20T07:07:44.416Z,36.75
2019-03-20T07:12:51.726Z,34.67
2019-03-20T07:17:58.801Z,33.67
2019-03-20T07:23:05.924Z,34.40
2019-03-20T07:28:12.840Z,33.70
2019-03-20T07:33:19.901Z,34.15
2019-03-20T07:38:28.685Z,34.38
2019-03-20T07:43:36.787Z,35.55
2019-03-20T07:48:43.985Z,34.55
2019-03-20T07:53:50.694Z,34.67
2019-03-20T07:58:58.822Z,33.73
2019-03-20T08:04:06.388Z,33.83
2019-03-20T08:09:14.053Z,32.60
2019-03-20T08:14:22.442Z,31.42
2019-03-20T08:19:30.122Z,31.65
2019-03-20T08:24:38.171Z,32.35
2019-03-20T08:29:46.636Z,32.75
2019-03-20T08:34:54.569Z,31.52
2019-03-20T08:40:02.184Z,32.58
2019-03-20T08:45:22.464Z,31.10
2019-03-20T08:50:30.275Z,32.17
2019-03-20T08:55:37.983Z,32.67
2019-03-20T09:00:46.028Z,34.20
2019-03-20T09:05:52.916Z,35.28
2019-03-20T09:11:00.718Z,33.73
2019-03-20T09:16:09.625Z,34.00
2019-03-20T09:21:17.425Z,34.20
2019-03-20T09:26:25.696Z,36.25
2019-03-20T09:31:32.730Z,35.92
2019-03-20T09:36:43.266Z,34.03
2019-03-20T09:41:48.621Z,33.92
2019-03-20T09:46:57.356Z,35.80
2019-03-20T09:52:04.452Z,36.03
2019-03-20T09:57:11.750Z,35.38
2019-03-20T10:02:19.186Z,35.90
2019-03-20T10:07:27.137Z,35.05
2019-03-20T10:12:34.261Z,35.05
2019-03-20T10:17:41.231Z,34.67
2019-03-20T10:22:50.979Z,35.75
2019-03-20T10:28:01.137Z,36.60
2019-03-20T10:38:15.898Z,37.85
2019-03-20T10:43:22.777Z,36.85
2019-03-20T10:48:30.373Z,39.70
2019-03-20T10:53:38.236Z,42.13
2019-03-20T10:58:45.626Z,47.40
2019-03-20T11:03:52.581Z,47.15
2019-03-20T11:09:00.025Z,45.35
2019-03-20T11:14:09.296Z,47.05
2019-03-20T11:19:16.245Z,49.60
2019-03-20T11:24:23.129Z,47.08
2019-03-20T11:29:30.092Z,56.23
2019-03-20T11:34:37.608Z,54.35
2019-03-20T11:39:45.579Z,48.90
2019-03-20T11:44:52.648Z,43.68
2019-03-20T11:49:59.726Z,39.65
2019-03-20T11:55:07.928Z,40.25
2019-03-20T12:00:22.955Z,43.30
2019-03-20T12:05:30.374Z,44.42
2019-03-20T12:10:38.824Z,44.27
2019-03-20T12:15:46.044Z,45.08
2019-03-20T12:20:53.341Z,46.28
2019-03-20T12:26:00.154Z,44.55
2019-03-20T12:31:07.862Z,46.42
2019-03-20T12:36:16.015Z,44.15
2019-03-20T12:41:24.301Z,44.10
2019-03-20T12:46:41.335Z,44.33
2019-03-20T12:51:39.808Z,42.88
2019-03-20T12:56:47.103Z,44.42
2019-03-20T13:01:54.236Z,47.05
2019-03-20T13:07:01.621Z,46.88
2019-03-20T13:12:09.654Z,47.38
2019-03-20T13:17:16.826Z,49.03
2019-03-20T13:22:24.553Z,49.75
2019-03-20T13:27:33.884Z,47.98
2019-03-20T13:33:04.265Z,51.88
2019-03-20T13:38:12.207Z,49.35
2019-03-20T13:43:20.500Z,50.67
2019-03-20T13:48:28.785Z,50.73
2019-03-20T13:53:35.752Z,49.55
2019-03-20T13:58:42.714Z,48.90
2019-03-20T14:03:51.065Z,50.90
2019-03-20T14:08:57.962Z,50.25
2019-03-20T14:14:05.038Z,54.53
2019-03-20T14:19:13.341Z,54.38
2019-03-20T14:24:20.958Z,50.70
2019-03-20T14:29:29.373Z,54.98
2019-03-20T14:34:36.236Z,52.35
2019-03-20T14:39:43.149Z,52.65
2019-03-20T14:44:51.772Z,52.90
2019-03-20T14:49:59.488Z,52.90
2019-03-20T14:55:08.680Z,55.03
2019-03-20T15:00:18.270Z,52.98
2019-03-20T15:05:25.894Z,53.08
2019-03-20T15:10:32.800Z,54.20
2019-03-20T15:15:42.598Z,52.95
2019-03-20T15:20:49.677Z,53.13
2019-03-20T15:25:56.531Z,56.90
2019-03-20T15:31:03.586Z,55.28
2019-03-20T15:36:11.974Z,54.95
2019-03-20T15:41:19.051Z,54.80
2019-03-20T15:46:26.231Z,55.48
2019-03-20T15:51:34.625Z,56.80
2019-03-20T15:56:41.615Z,55.60
2019-03-20T16:01:48.634Z,57.62
2019-03-20T16:06:55.397Z,57.58
2019-03-20T16:12:02.201Z,55.95
2019-03-20T16:17:09.263Z,57.50
2019-03-20T16:22:16.202Z,58.35
2019-03-20T16:27:23.628Z,57.13
2019-03-20T16:32:30.506Z,57.67
2019-03-20T16:37:37.454Z,57.85
2019-03-20T16:42:44.601Z,55.33
2019-03-20T16:47:51.466Z,59.42
2019-03-20T16:52:58.640Z,66.75
2019-03-20T16:58:05.804Z,66.85
2019-03-20T17:03:12.812Z,67.15
2019-03-20T17:08:28.855Z,67.40
2019-03-20T17:13:35.722Z,68.57
2019-03-20T17:18:42.826Z,67.05
2019-03-20T17:23:50.268Z,66.67
2019-03-20T17:28:57.162Z,66.28
2019-03-20T17:34:04.349Z,68.00
2019-03-20T17:39:12.956Z,69.07
2019-03-20T17:44:19.959Z,67.15
2019-03-20T17:49:26.881Z,68.10
2019-03-20T17:54:33.893Z,64.60
2019-03-20T17:59:40.815Z,65.65
2019-03-20T18:04:47.923Z,66.50
2019-03-20T18:09:54.729Z,65.50
2019-03-20T18:15:03.169Z,67.97
2019-03-20T18:20:13.143Z,69.07
2019-03-20T18:25:20.323Z,65.70
2019-03-20T18:30:28.805Z,66.55
2019-03-20T18:35:36.085Z,69.22
2019-03-20T18:40:43.478Z,69.42
2019-03-20T18:45:52.385Z,67.37
2019-03-20T18:50:59.307Z,70.08
2019-03-20T18:56:06.508Z,73.17
2019-03-20T19:01:13.627Z,72.37
2019-03-20T19:06:23.357Z,73.17
2019-03-20T19:11:30.317Z,75.52
2019-03-20T19:16:37.348Z,73.85
2019-03-20T19:21:44.421Z,71.47
2019-03-20T19:26:51.794Z,68.30
2019-03-20T19:31:59.005Z,69.65
2019-03-20T19:37:05.998Z,72.55
2019-03-20T19:42:19.954Z,76.33
2019-03-20T19:47:21.354Z,75.03
2019-03-20T19:52:28.493Z,75.08
2019-03-20T19:57:35.292Z,76.07
2019-03-20T20:02:42.252Z,75.57
2019-03-20T20:07:49.480Z,76.47
2019-03-20T20:12:56.856Z,73.35
2019-03-20T20:18:03.846Z,72.60
2019-03-20T20:23:10.700Z,71.87
2019-03-20T20:28:17.647Z,71.07
2019-03-20T20:33:24.879Z,69.47
2019-03-20T20:38:31.791Z,61.33
2019-03-20T20:43:39.853Z,59.88
2019-03-20T20:48:46.878Z,60.65
2019-03-20T20:53:53.666Z,60.05
2019-03-20T20:59:00.755Z,55.03
2019-03-20T21:04:07.726Z,54.35
2019-03-20T21:09:15.018Z,54.95
2019-03-20T21:14:22.590Z,54.40
2019-03-20T21:19:37.362Z,52.88
2019-03-20T21:24:44.436Z,56.13
2019-03-20T21:29:53.967Z,57.05
2019-03-20T21:35:03.538Z,55.60
2019-03-20T21:40:13.031Z,54.65
2019-03-20T21:45:21.559Z,51.15
2019-03-20T21:50:31.231Z,51.58
2019-03-20T21:55:40.784Z,50.28
2019-03-20T22:00:50.996Z,59.35
2019-03-20T22:05:58.814Z,53.50
2019-03-20T22:11:08.683Z,54.25
2019-03-20T22:16:21.170Z,57.15
2019-03-20T22:21:31.208Z,59.18
2019-03-20T22:26:40.836Z,58.92
2019-03-20T22:31:50.835Z,56.50
2019-03-20T22:36:58.099Z,55.10
2019-03-20T22:42:07.991Z,55.15
2019-03-20T22:47:17.879Z,59.23
2019-03-20T22:52:28.697Z,54.40
2019-03-20T22:57:38.496Z,58.02
2019-03-20T23:02:49.129Z,59.63
2019-03-20T23:07:56.293Z,55.33
2019-03-20T23:13:03.299Z,60.65
2019-03-20T23:18:10.265Z,53.10
2019-03-20T23:23:17.330Z,53.87
2019-03-20T23:28:24.577Z,57.50
2019-03-20T23:33:31.610Z,66.95
2019-03-20T23:38:38.897Z,56.48
2019-03-20T23:43:52.885Z,57.60
2019-03-20T23:48:57.238Z,58.85
2019-03-20T23:54:04.447Z,72.05
2019-03-20T23:59:11.595Z,100.50
